Time;durP1;ratioP1;P1;durP2;ratioP2;P2;SDS_P1;SDS_P2;PMS_P1;PMS_P2;Temp;Humidity;BMP_temperature;BMP_pressure;BME280_temperature;BME280_humidity;BME280_pressure;Samples;Min_cycle;Max_cycle;Signal;HPM_P1;HPM_P2
2022/04/29 00:01:02;;;;;;;14.93;12.40;;;8.00;1.00;;;;;;5077879;28;20500;-59
2022/04/29 00:03:29;;;;;;;17.10;12.63;;;8.00;1.00;;;;;;5077858;28;20882;-58
2022/04/29 00:06:04;;;;;;;16.73;13.13;;;8.00;1.00;;;;;;5078600;28;20535;-58
2022/04/29 00:08:35;;;;;;;14.97;12.50;;;8.00;1.00;;;;;;5078049;28;20505;-58
2022/04/29 00:11:03;;;;;;;15.20;12.60;;;8.00;1.00;;;;;;5078125;28;20461;-58
2022/04/29 00:13:33;;;;;;;19.03;12.90;;;7.90;1.00;;;;;;5077686;28;20489;-58
2022/04/29 00:16:03;;;;;;;15.00;13.10;;;7.80;1.00;;;;;;5078038;28;20464;-59
2022/04/29 00:18:35;;;;;;;19.57;12.67;;;7.80;1.00;;;;;;5077730;28;20757;-58
2022/04/29 00:21:06;;;;;;;14.37;12.87;;;7.70;1.00;;;;;;5077991;28;20555;-58
2022/04/29 00:23:36;;;;;;;18.80;12.60;;;7.70;1.00;;;;;;5077626;28;20504;-58
2022/04/29 00:26:03;;;;;;;17.43;12.93;;;7.70;1.00;;;;;;5076875;28;20532;-58
2022/04/29 00:28:30;;;;;;;15.53;11.40;;;7.70;1.00;;;;;;5076273;28;20527;-57
2022/04/29 00:31:03;;;;;;;18.10;12.60;;;7.70;1.00;;;;;;5077333;28;20512;-58
2022/04/29 00:33:30;;;;;;;19.00;12.10;;;7.60;1.00;;;;;;5077614;28;20548;-56
2022/04/29 00:35:57;;;;;;;17.87;13.57;;;7.60;1.00;;;;;;5067609;28;20500;-58
2022/04/29 00:38:26;;;;;;;21.07;13.07;;;7.70;1.00;;;;;;5076496;28;20493;-59
2022/04/29 00:40:55;;;;;;;16.50;13.00;;;7.60;1.00;;;;;;5077471;28;20492;-59
2022/04/29 00:43:21;;;;;;;16.63;13.53;;;7.60;1.00;;;;;;5077196;28;20485;-57
2022/04/29 00:45:51;;;;;;;14.53;12.50;;;7.60;1.00;;;;;;5077624;28;21007;-58
2022/04/29 00:48:25;;;;;;;17.70;12.33;;;7.60;1.00;;;;;;5077282;28;20472;-58
2022/04/29 00:50:52;;;;;;;17.47;12.70;;;7.50;1.00;;;;;;5077422;28;20497;-58
2022/04/29 00:53:27;;;;;;;18.30;12.60;;;7.50;1.00;;;;;;5076682;28;20530;-58
2022/04/29 00:56:05;;;;;;;17.33;12.10;;;7.40;1.00;;;;;;5077849;28;20471;-59
2022/04/29 00:58:37;;;;;;;13.80;12.33;;;7.40;1.00;;;;;;5076297;28;20497;-58
2022/04/29 01:01:11;;;;;;;18.00;13.50;;;7.30;1.00;;;;;;5077592;28;20465;-58
2022/04/29 01:03:39;;;;;;;18.40;12.83;;;7.20;1.00;;;;;;5076455;28;20920;-58
2022/04/29 01:06:06;;;;;;;16.27;13.80;;;7.20;1.00;;;;;;5077328;28;20493;-59
2022/04/29 01:08:39;;;;;;;17.40;13.23;;;7.10;1.00;;;;;;5076903;28;20463;-56
2022/04/29 01:11:26;;;;;;;16.27;13.00;;;7.10;1.00;;;;;;5077279;28;20503;-58
2022/04/29 01:13:55;;;;;;;16.57;12.30;;;7.00;1.00;;;;;;5077010;28;20460;-58
2022/04/29 01:16:22;;;;;;;20.30;13.57;;;7.00;1.00;;;;;;5077438;28;20457;-59
2022/04/29 01:18:55;;;;;;;15.17;12.77;;;7.10;1.00;;;;;;5076596;28;20552;-58
2022/04/29 01:21:26;;;;;;;17.70;12.70;;;7.10;1.00;;;;;;5076947;28;20461;-58
2022/04/29 01:24:04;;;;;;;21.13;14.13;;;7.10;1.00;;;;;;5076321;28;20493;-58
2022/04/29 01:26:34;;;;;;;17.80;12.67;;;6.90;1.00;;;;;;5076990;28;20492;-58
2022/04/29 01:29:06;;;;;;;18.23;12.60;;;6.80;1.00;;;;;;5076653;28;20917;-59
2022/04/29 01:31:37;;;;;;;20.43;12.23;;;6.80;1.00;;;;;;5057156;28;20466;-57
2022/04/29 01:34:07;;;;;;;15.30;12.13;;;6.80;1.00;;;;;;5063080;28;20512;-58
2022/04/29 01:36:34;;;;;;;19.83;14.30;;;6.70;1.00;;;;;;5076782;28;20432;-57
2022/04/29 01:39:04;;;;;;;19.77;13.57;;;6.70;1.00;;;;;;5077079;28;20555;-58
2022/04/29 01:41:32;;;;;;;18.23;13.57;;;6.60;1.00;;;;;;5076689;28;20500;-58
2022/04/29 01:44:02;;;;;;;17.77;12.80;;;6.60;1.00;;;;;;5076538;28;20492;-58
2022/04/29 01:46:29;;;;;;;19.97;13.47;;;6.60;1.00;;;;;;5076439;28;20867;-58
2022/04/29 01:48:56;;;;;;;18.00;13.83;;;6.60;1.00;;;;;;5075905;28;20490;-57
2022/04/29 01:51:23;;;;;;;15.67;13.30;;;6.60;1.00;;;;;;5076527;28;20819;-58
2022/04/29 01:53:53;;;;;;;13.90;12.33;;;6.50;1.00;;;;;;5076668;28;20472;-57
2022/04/29 01:56:32;;;;;;;20.37;13.60;;;6.50;1.00;;;;;;5077500;28;20468;-57
2022/04/29 01:59:00;;;;;;;22.60;14.07;;;6.50;1.00;;;;;;5076064;28;20468;-56
2022/04/29 02:01:30;;;;;;;15.47;12.37;;;6.50;1.00;;;;;;5076374;28;20460;-58
2022/04/29 02:03:58;;;;;;;15.77;13.53;;;6.40;1.00;;;;;;5075700;28;20465;-58
2022/04/29 02:06:34;;;;;;;17.30;13.30;;;6.40;1.00;;;;;;5075687;28;20499;-58
2022/04/29 02:09:01;;;;;;;21.27;15.00;;;6.40;1.00;;;;;;5072813;28;20469;-58
2022/04/29 02:11:32;;;;;;;20.60;16.00;;;6.50;1.00;;;;;;5076544;28;20464;-57
2022/04/29 02:13:59;;;;;;;19.00;15.13;;;6.40;1.00;;;;;;5076133;28;20467;-58
2022/04/29 02:16:26;;;;;;;24.13;18.10;;;6.50;6.20;;;;;;5077946;28;20759;-57
2022/04/29 02:18:55;;;;;;;23.40;16.30;;;6.50;6.60;;;;;;5078445;28;20491;-58
2022/04/29 02:21:30;;;;;;;22.67;16.53;;;6.60;1.00;;;;;;5080741;28;20504;-58
2022/04/29 02:23:57;;;;;;;25.53;17.70;;;6.50;1.00;;;;;;5080265;28;20750;-58
2022/04/29 02:26:24;;;;;;;21.03;17.97;;;6.50;1.00;;;;;;5080976;28;20489;-58
2022/04/29 02:28:52;;;;;;;23.57;17.30;;;6.50;1.00;;;;;;5079117;28;20461;-58
2022/04/29 02:31:21;;;;;;;27.03;19.87;;;6.50;1.00;;;;;;5069712;28;20497;-58
2022/04/29 02:33:51;;;;;;;24.17;15.90;;;6.60;1.00;;;;;;5079689;28;20496;-58
2022/04/29 02:36:22;;;;;;;20.37;14.67;;;6.50;1.00;;;;;;5080286;28;20465;-57
2022/04/29 02:38:49;;;;;;;18.80;14.53;;;6.40;1.00;;;;;;5080205;28;20463;-58
2022/04/29 02:41:16;;;;;;;21.30;15.87;;;6.40;1.00;;;;;;5079697;28;20474;-57
2022/04/29 02:43:46;;;;;;;22.30;16.07;;;6.50;1.00;;;;;;5079867;28;20489;-57
2022/04/29 02:46:20;;;;;;;21.20;14.90;;;6.50;1.00;;;;;;5080039;28;20464;-58
2022/04/29 02:48:50;;;;;;;20.93;17.60;;;6.50;1.00;;;;;;5080105;28;20759;-58
2022/04/29 02:51:18;;;;;;;22.53;15.47;;;6.50;1.00;;;;;;5079052;28;20522;-58
2022/04/29 02:53:47;;;;;;;18.33;14.90;;;6.50;1.00;;;;;;5079916;28;20460;-58
2022/04/29 02:56:14;;;;;;;18.70;15.10;;;6.50;1.00;;;;;;5078787;28;20507;-59
2022/04/29 02:58:43;;;;;;;20.60;17.33;;;6.40;1.00;;;;;;5079948;28;20512;-57
2022/04/29 03:01:10;;;;;;;21.20;15.40;;;6.40;1.00;;;;;;5078720;28;20461;-58
2022/04/29 03:03:39;;;;;;;21.60;17.60;;;6.40;1.00;;;;;;5079635;28;20481;-58
2022/04/29 03:06:06;;;;;;;24.73;20.03;;;6.40;1.00;;;;;;5079184;28;20544;-59
2022/04/29 03:08:34;;;;;;;20.47;16.90;;;6.40;28.20;;;;;;5073672;28;20523;-58
2022/04/29 03:11:04;;;;;;;17.50;14.30;;;6.40;40.80;;;;;;5078552;28;20465;-59
2022/04/29 03:13:33;;;;;;;24.40;17.20;;;6.30;5.40;;;;;;5079553;28;20547;-58
2022/04/29 03:16:05;;;;;;;25.37;18.03;;;6.30;12.40;;;;;;5078281;28;20497;-59
2022/04/29 03:18:32;;;;;;;22.43;16.50;;;6.30;47.80;;;;;;5079585;28;20776;-58
2022/04/29 03:21:03;;;;;;;25.30;18.40;;;6.30;30.90;;;;;;5078676;28;20497;-58
2022/04/29 03:23:37;;;;;;;22.50;18.60;;;6.30;25.50;;;;;;5078787;28;20496;-58
2022/04/29 03:26:08;;;;;;;22.93;18.47;;;6.30;1.00;;;;;;5078508;28;20909;-58
2022/04/29 03:28:34;;;;;;;24.47;18.73;;;6.30;12.60;;;;;;5078937;28;20458;-58
2022/04/29 03:31:05;;;;;;;27.10;21.00;;;6.40;97.20;;;;;;5078604;28;20824;-58
2022/04/29 03:33:35;;;;;;;29.60;22.73;;;6.40;99.90;;;;;;5079079;28;20757;-58
2022/04/29 03:36:08;;;;;;;26.27;23.17;;;6.40;99.90;;;;;;5077685;28;20458;-58
2022/04/29 03:38:35;;;;;;;28.83;24.20;;;6.40;99.90;;;;;;5079188;28;20462;-59
2022/04/29 03:41:02;;;;;;;26.33;22.60;;;6.50;99.90;;;;;;5078799;28;20560;-58
2022/04/29 03:43:32;;;;;;;34.07;24.20;;;6.50;99.90;;;;;;5079114;28;20481;-58
2022/04/29 03:45:59;;;;;;;29.43;22.30;;;6.50;99.90;;;;;;5078843;28;20491;-59
2022/04/29 03:49:35;;;;;;;32.60;24.50;;;6.60;99.90;;;;;;5078514;28;20925;-58
2022/04/29 03:51:21;;;;;;;27.13;21.93;;;6.50;99.90;;;;;;5078414;28;20967;-58
2022/04/29 03:53:49;;;;;;;28.70;22.57;;;6.50;99.90;;;;;;5078975;28;20936;-58
2022/04/29 03:56:19;;;;;;;34.93;24.23;;;6.50;99.90;;;;;;5078722;28;20493;-57
2022/04/29 03:58:51;;;;;;;25.00;22.03;;;6.60;99.90;;;;;;5078105;28;20472;-58
2022/04/29 04:01:18;;;;;;;33.97;23.50;;;6.50;99.90;;;;;;5077965;28;20464;-58
2022/04/29 04:09:11;;;;;;;30.50;24.60;;;6.50;99.90;;;;;;5077318;28;20587;-58
2022/04/29 04:11:38;;;;;;;27.37;22.20;;;6.50;99.90;;;;;;5077382;28;20508;-58
2022/04/29 04:14:11;;;;;;;27.23;21.87;;;6.50;99.90;;;;;;5078473;28;20930;-58
2022/04/29 04:16:38;;;;;;;26.63;23.37;;;6.50;99.90;;;;;;5078332;28;20898;-59
2022/04/29 04:19:09;;;;;;;33.00;24.10;;;6.50;99.90;;;;;;5077694;28;21011;-58
2022/04/29 04:21:43;;;;;;;27.87;22.87;;;6.50;99.90;;;;;;5078126;28;20473;-59
2022/04/29 04:24:13;;;;;;;30.17;23.20;;;6.50;1.00;;;;;;5077619;28;20467;-58
2022/04/29 04:26:42;;;;;;;26.73;23.87;;;6.60;1.00;;;;;;5078045;28;20900;-58
2022/04/29 04:29:09;;;;;;;29.00;23.40;;;6.60;99.90;;;;;;5077436;28;20536;-57
2022/04/29 04:31:37;;;;;;;31.40;24.50;;;6.60;1.00;;;;;;5077940;28;20439;-58
2022/04/29 04:34:49;;;;;;;28.40;21.97;;;6.70;1.00;;;;;;5077481;28;20799;-58
2022/04/29 04:36:56;;;;;;;32.83;21.17;;;6.70;1.00;;;;;;5077550;28;20449;-58
2022/04/29 04:39:25;;;;;;;33.53;23.97;;;6.70;99.90;;;;;;5076326;28;20476;-58
2022/04/29 04:41:52;;;;;;;31.60;23.87;;;6.70;99.90;;;;;;5077907;28;20491;-58
2022/04/29 04:44:25;;;;;;;27.50;22.57;;;6.80;99.90;;;;;;5076770;28;20917;-58
2022/04/29 04:46:57;;;;;;;27.23;23.70;;;6.80;99.90;;;;;;5075578;28;20847;-58
2022/04/29 04:49:39;;;;;;;30.40;22.40;;;6.80;99.90;;;;;;5075796;28;20475;-58
2022/04/29 04:52:11;;;;;;;26.23;22.47;;;6.90;99.90;;;;;;5076329;28;20461;-60
2022/04/29 04:54:49;;;;;;;30.63;20.80;;;6.90;99.90;;;;;;5076962;28;20462;-59
2022/04/29 04:57:20;;;;;;;30.73;23.40;;;6.90;99.90;;;;;;5073492;28;20539;-58
2022/04/29 04:59:50;;;;;;;25.10;21.07;;;6.90;99.90;;;;;;5075746;28;20890;-58
2022/04/29 05:02:19;;;;;;;31.70;23.50;;;6.90;99.90;;;;;;5075778;28;20884;-61
2022/04/29 05:04:47;;;;;;;26.97;22.43;;;6.90;99.90;;;;;;5075539;28;20556;-56
2022/04/29 05:07:22;;;;;;;27.47;22.27;;;7.00;99.90;;;;;;5076191;28;20490;-59
2022/04/29 05:09:53;;;;;;;32.73;21.83;;;7.00;99.90;;;;;;5076636;28;20500;-60
2022/04/29 05:12:21;;;;;;;29.60;24.17;;;7.10;99.90;;;;;;5076084;28;20520;-59
2022/04/29 05:14:51;;;;;;;29.73;22.67;;;7.20;99.90;;;;;;5076790;28;20818;-60
2022/04/29 05:17:26;;;;;;;28.40;22.67;;;7.30;99.90;;;;;;5076320;28;20805;-59
2022/04/29 05:19:56;;;;;;;30.30;21.73;;;7.40;99.90;;;;;;5076677;28;20469;-60
2022/04/29 05:22:29;;;;;;;22.87;20.33;;;7.50;99.90;;;;;;5076720;28;20507;-59
2022/04/29 05:24:56;;;;;;;26.00;21.70;;;7.50;99.90;;;;;;5077629;28;20556;-59
2022/04/29 05:27:23;;;;;;;27.30;21.63;;;7.50;55.90;;;;;;5075699;28;20509;-59
2022/04/29 05:29:50;;;;;;;26.93;21.47;;;7.60;19.80;;;;;;5076478;28;20473;-58
2022/04/29 05:32:19;;;;;;;25.87;20.73;;;7.60;1.00;;;;;;5075968;28;20461;-59
2022/04/29 05:34:47;;;;;;;24.47;21.33;;;7.60;1.00;;;;;;5075651;28;20829;-59
2022/04/29 05:37:17;;;;;;;23.53;21.03;;;7.70;1.00;;;;;;5074432;28;20780;-59
2022/04/29 05:42:36;;;;;;;25.13;20.73;;;7.80;1.00;;;;;;5073237;28;20449;-59
2022/04/29 05:45:03;;;;;;;27.07;21.30;;;7.70;1.00;;;;;;5070423;28;20515;-59
2022/04/29 05:47:30;;;;;;;25.80;21.40;;;7.60;1.00;;;;;;5080809;28;20791;-56
2022/04/29 05:50:02;;;;;;;27.50;20.87;;;7.70;1.00;;;;;;5076537;28;20811;-59
2022/04/29 05:52:29;;;;;;;25.13;20.30;;;7.80;1.00;;;;;;5080758;28;20501;-59
2022/04/29 05:54:58;;;;;;;24.90;21.03;;;7.90;1.00;;;;;;5080830;28;20508;-59
2022/04/29 05:57:27;;;;;;;24.30;20.33;;;7.80;1.00;;;;;;5080910;28;20909;-59
2022/04/29 05:59:58;;;;;;;26.77;22.83;;;7.90;1.00;;;;;;5079735;28;20552;-59
2022/04/29 06:02:28;;;;;;;27.20;20.53;;;8.00;1.00;;;;;;5077639;28;20784;-59
2022/04/29 06:04:58;;;;;;;28.07;20.53;;;8.10;1.00;;;;;;5076483;28;20496;-59
2022/04/29 06:07:29;;;;;;;26.07;21.93;;;8.10;1.00;;;;;;5079799;28;20990;-59
2022/04/29 06:09:57;;;;;;;26.60;19.70;;;8.20;1.00;;;;;;5079816;28;20488;-59
2022/04/29 06:12:26;;;;;;;27.30;20.17;;;8.20;1.00;;;;;;5079826;28;20492;-59
2022/04/29 06:14:56;;;;;;;24.23;20.83;;;8.20;1.00;;;;;;5070623;28;20465;-59
2022/04/29 06:17:33;;;;;;;24.57;20.90;;;8.50;1.00;;;;;;5080580;28;20510;-58
2022/04/29 06:20:02;;;;;;;22.53;19.77;;;8.80;1.00;;;;;;5079061;28;20518;-58
2022/04/29 06:22:29;;;;;;;22.13;19.83;;;9.10;1.00;;;;;;5080255;28;20496;-59
2022/04/29 06:25:12;;;;;;;21.03;18.87;;;9.40;1.00;;;;;;5079122;28;20500;-60
2022/04/29 06:27:47;;;;;;;25.43;18.97;;;9.60;1.00;;;;;;5080716;28;20579;-60
2022/04/29 06:30:15;;;;;;;22.17;18.53;;;9.80;1.00;;;;;;5078795;28;20457;-60
2022/04/29 06:32:44;;;;;;;23.53;19.30;;;10.00;1.00;;;;;;5078488;28;20497;-60
2022/04/29 06:35:11;;;;;;;23.43;19.43;;;10.00;1.00;;;;;;5079014;28;20500;-59
2022/04/29 06:37:38;;;;;;;23.47;20.60;;;10.40;1.00;;;;;;5080005;28;20464;-60
2022/04/29 06:40:13;;;;;;;23.10;19.30;;;10.60;1.00;;;;;;5078980;28;20469;-59
2022/04/29 06:42:50;;;;;;;23.53;18.10;;;10.50;1.00;;;;;;5079259;28;20461;-60
2022/04/29 06:45:19;;;;;;;24.90;19.30;;;10.30;99.90;;;;;;5078681;28;20472;-59
2022/04/29 06:47:49;;;;;;;27.33;18.80;;;10.20;99.90;;;;;;5079931;28;20841;-60
2022/04/29 06:50:16;;;;;;;26.13;18.93;;;10.10;1.00;;;;;;5079105;28;20504;-60
2022/04/29 06:52:43;;;;;;;22.77;19.13;;;10.20;1.00;;;;;;5078810;28;20500;-60
2022/04/29 06:55:17;;;;;;;24.80;18.20;;;10.20;99.90;;;;;;5079349;28;20839;-60
2022/04/29 06:57:47;;;;;;;22.03;18.87;;;10.30;99.90;;;;;;5080179;28;20504;-59
2022/04/29 07:00:19;;;;;;;21.10;19.00;;;10.40;99.90;;;;;;5079442;28;20462;-60
2022/04/29 07:02:49;;;;;;;22.30;19.60;;;10.40;99.90;;;;;;5077545;28;20556;-59
2022/04/29 07:05:19;;;;;;;22.87;20.07;;;10.40;99.90;;;;;;5079630;28;20555;-59
2022/04/29 07:07:50;;;;;;;26.17;19.13;;;10.40;99.90;;;;;;5059270;28;20991;-60
2022/04/29 07:10:18;;;;;;;23.00;18.63;;;10.40;99.90;;;;;;5059479;28;20488;-59
2022/04/29 07:12:47;;;;;;;20.00;17.83;;;10.50;99.90;;;;;;5071203;28;20517;-59
2022/04/29 07:15:17;;;;;;;22.00;18.60;;;10.50;99.90;;;;;;5079104;28;20568;-60
2022/04/29 07:17:48;;;;;;;27.37;19.20;;;10.60;99.90;;;;;;5078841;28;20531;-59
2022/04/29 07:20:20;;;;;;;20.37;17.93;;;10.50;99.90;;;;;;5079018;28;20489;-59
2022/04/29 07:22:49;;;;;;;23.10;18.03;;;10.60;99.90;;;;;;5077871;28;20472;-59
2022/04/29 07:25:25;;;;;;;25.03;19.13;;;10.70;99.90;;;;;;5078924;28;20734;-58
2022/04/29 07:27:55;;;;;;;21.63;17.40;;;10.70;99.90;;;;;;5078326;28;20575;-60
2022/04/29 07:30:22;;;;;;;20.73;16.93;;;11.00;99.90;;;;;;5078624;28;20496;-60
2022/04/29 07:32:49;;;;;;;21.70;17.70;;;11.10;99.90;;;;;;5078170;28;20445;-60
2022/04/29 07:43:39;;;;;;;21.37;17.67;;;12.00;99.90;;;;;;5078265;28;20453;-60
2022/04/29 07:46:10;;;;;;;20.37;17.63;;;12.10;99.90;;;;;;5079077;28;20481;-60
2022/04/29 07:48:40;;;;;;;19.97;17.87;;;12.00;99.90;;;;;;5078328;28;20496;-60
2022/04/29 07:51:07;;;;;;;20.37;18.17;;;11.90;99.90;;;;;;5078614;28;20503;-60
2022/04/29 07:54:08;;;;;;;19.87;17.87;;;12.10;99.90;;;;;;5078356;28;20458;-60
2022/04/29 07:57:12;;;;;;;20.20;17.17;;;12.70;99.90;;;;;;5077953;28;20527;-60
2022/04/29 07:59:39;;;;;;;22.07;16.67;;;13.10;99.90;;;;;;4995553;28;20835;-61
2022/04/29 08:06:23;;;;;;;25.80;16.50;;;14.20;99.90;;;;;;5007467;28;20450;-60
2022/04/29 08:09:27;;;;;;;18.33;16.43;;;14.00;99.90;;;;;;5027342;28;20527;-59
2022/04/29 08:14:49;;;;;;;23.33;16.57;;;13.80;99.90;;;;;;5061217;28;20472;-61
2022/04/29 08:17:15;;;;;;;19.13;17.17;;;13.90;99.90;;;;;;5077788;28;20817;-60
2022/04/29 08:19:45;;;;;;;18.57;16.67;;;14.00;99.90;;;;;;5078464;28;20461;-61
2022/04/29 08:22:12;;;;;;;18.30;16.50;;;14.40;99.90;;;;;;5077869;28;20497;-61
2022/04/29 08:24:45;;;;;;;18.33;16.43;;;14.60;99.90;;;;;;5078264;28;20508;-60
2022/04/29 08:27:13;;;;;;;18.50;16.70;;;14.40;99.90;;;;;;5077425;28;20485;-61
2022/04/29 08:29:46;;;;;;;21.00;16.77;;;14.70;99.90;;;;;;5078042;28;20466;-60
2022/04/29 08:32:13;;;;;;;17.60;15.90;;;14.80;99.90;;;;;;5076669;28;20554;-61
2022/04/29 08:34:42;;;;;;;18.17;16.27;;;14.90;99.90;;;;;;5077763;28;20800;-60
2022/04/29 08:37:11;;;;;;;17.10;15.30;;;15.10;99.90;;;;;;5076449;28;20454;-61
2022/04/29 08:39:39;;;;;;;17.63;15.70;;;15.40;99.90;;;;;;5077060;28;20483;-61
2022/04/29 08:42:07;;;;;;;18.97;16.80;;;15.50;99.90;;;;;;5077122;28;20462;-60
2022/04/29 08:44:40;;;;;;;17.90;16.10;;;15.90;99.90;;;;;;5077499;28;20508;-60
2022/04/29 08:47:12;;;;;;;17.80;16.03;;;16.00;99.90;;;;;;5074957;28;20522;-61
2022/04/29 08:49:39;;;;;;;17.07;15.30;;;16.20;99.90;;;;;;5057902;28;20524;-61
2022/04/29 08:52:07;;;;;;;19.87;15.10;;;16.10;99.90;;;;;;5068381;28;20890;-61
2022/04/29 09:00:14;;;;;;;15.97;14.37;;;15.90;99.90;;;;;;5057137;28;20786;-61
2022/04/29 09:02:44;;;;;;;16.27;13.77;;;15.20;99.90;;;;;;5045520;28;20468;-61
2022/04/29 09:05:12;;;;;;;16.47;14.93;;;15.40;99.90;;;;;;5075978;28;20473;-61
2022/04/29 09:07:52;;;;;;;15.53;14.00;;;15.50;99.90;;;;;;5077509;28;20494;-60
2022/04/29 09:10:20;;;;;;;17.80;14.60;;;15.70;99.90;;;;;;5075614;28;20559;-61
2022/04/29 09:12:47;;;;;;;19.70;15.93;;;15.30;99.90;;;;;;5075431;28;20517;-61
2022/04/29 09:15:18;;;;;;;17.93;14.73;;;15.30;99.90;;;;;;5075286;28;20642;-61
2022/04/29 09:17:51;;;;;;;17.20;13.83;;;15.20;99.90;;;;;;5075163;28;20500;-61
2022/04/29 09:20:21;;;;;;;15.73;13.90;;;15.10;99.90;;;;;;5075355;28;20534;-61
2022/04/29 09:22:50;;;;;;;17.57;13.93;;;15.00;99.90;;;;;;5075512;28;20484;-61
2022/04/29 09:25:20;;;;;;;15.83;13.80;;;15.30;99.90;;;;;;5076590;28;20500;-61
2022/04/29 09:28:09;;;;;;;15.60;14.07;;;15.50;99.90;;;;;;5076453;28;20523;-61
2022/04/29 09:30:39;;;;;;;17.40;14.13;;;15.70;99.90;;;;;;5076354;28;20462;-61
2022/04/29 09:33:21;;;;;;;15.40;13.90;;;15.60;99.90;;;;;;5076672;28;20526;-61
2022/04/29 09:35:51;;;;;;;17.93;14.10;;;15.30;99.90;;;;;;5074630;28;20492;-61
2022/04/29 09:41:22;;;;;;;15.20;13.60;;;15.50;99.90;;;;;;5075348;28;20579;-61
2022/04/29 09:43:49;;;;;;;15.80;13.73;;;15.40;99.90;;;;;;5074706;28;20503;-61
2022/04/29 09:46:22;;;;;;;21.50;14.00;;;15.70;99.90;;;;;;5073573;28;20510;-61
2022/04/29 09:49:06;;;;;;;18.23;14.10;;;15.80;99.90;;;;;;5074882;28;20546;-61
2022/04/29 09:51:48;;;;;;;17.10;15.43;;;15.80;99.90;;;;;;5073278;28;20487;-61
2022/04/29 09:54:23;;;;;;;15.70;13.87;;;15.70;99.90;;;;;;5063514;28;20508;-61
2022/04/29 09:57:10;;;;;;;14.93;13.47;;;15.50;99.90;;;;;;5076685;28;20873;-61
2022/04/29 09:59:43;;;;;;;15.73;12.93;;;15.60;99.90;;;;;;5076527;28;20464;-61
2022/04/29 10:02:11;;;;;;;18.00;14.47;;;15.90;99.90;;;;;;5075437;28;20461;-61
2022/04/29 10:04:52;;;;;;;15.40;13.80;;;16.10;99.90;;;;;;5076587;28;20496;-60
2022/04/29 10:07:23;;;;;;;14.90;12.80;;;15.80;99.90;;;;;;5066099;28;20497;-61
2022/04/29 10:09:52;;;;;;;14.57;13.07;;;15.80;99.90;;;;;;5074068;28;20465;-61
2022/04/29 10:12:22;;;;;;;19.67;14.30;;;15.60;99.90;;;;;;5072607;28;20492;-61
2022/04/29 10:15:09;;;;;;;14.20;12.67;;;15.60;99.90;;;;;;5077020;28;20489;-61
2022/04/29 10:23:13;;;;;;;14.60;13.20;;;17.30;99.90;;;;;;5076359;28;20547;-61
2022/04/29 10:25:46;;;;;;;19.37;14.37;;;17.50;99.90;;;;;;5076779;28;20867;-61
2022/04/29 10:28:17;;;;;;;15.97;14.27;;;17.70;99.90;;;;;;5055894;28;20911;-61
2022/04/29 10:30:47;;;;;;;16.73;13.30;;;17.20;99.90;;;;;;5055758;28;20511;-61
2022/04/29 10:33:26;;;;;;;15.10;13.60;;;16.70;99.90;;;;;;5064861;28;20763;-62
2022/04/29 10:35:56;;;;;;;17.90;13.80;;;16.50;99.90;;;;;;5061192;28;20499;-61
2022/04/29 10:38:26;;;;;;;15.93;14.00;;;16.70;99.90;;;;;;5078338;28;20461;-61
2022/04/29 10:41:16;;;;;;;14.37;12.80;;;17.80;99.90;;;;;;5079045;28;20469;-61
2022/04/29 10:44:02;;;;;;;14.40;13.00;;;18.60;99.90;;;;;;5077966;28;20464;-61
2022/04/29 10:46:51;;;;;;;15.10;13.50;;;18.50;99.90;;;;;;5075431;28;20505;-61
2022/04/29 10:49:26;;;;;;;15.73;13.83;;;18.40;99.90;;;;;;5060196;28;20548;-61
2022/04/29 10:52:03;;;;;;;18.90;12.50;;;18.10;99.90;;;;;;5059903;28;20461;-62
2022/04/29 10:54:48;;;;;;;14.23;11.93;;;18.10;99.90;;;;;;5073481;28;20473;-62
2022/04/29 10:57:36;;;;;;;13.93;12.50;;;17.70;99.90;;;;;;5079064;28;20903;-61
2022/04/29 11:00:16;;;;;;;14.63;13.13;;;17.00;99.90;;;;;;5058085;28;20508;-61
2022/04/29 11:02:45;;;;;;;16.03;13.43;;;17.60;99.90;;;;;;5058418;28;20462;-61
2022/04/29 11:05:44;;;;;;;13.60;12.20;;;17.50;99.90;;;;;;5075486;28;20468;-61
2022/04/29 11:08:15;;;;;;;13.40;12.00;;;17.40;99.90;;;;;;5077154;28;21047;-62
2022/04/29 11:10:55;;;;;;;21.33;13.47;;;18.00;99.90;;;;;;5078305;28;20524;-62
2022/04/29 11:13:26;;;;;;;15.53;12.70;;;18.00;99.90;;;;;;5078208;28;20521;-62
2022/04/29 11:16:12;;;;;;;14.20;12.80;;;17.90;99.90;;;;;;5076741;28;20473;-61
2022/04/29 11:18:42;;;;;;;19.30;14.30;;;16.70;99.90;;;;;;5077789;28;21121;-62
2022/04/29 11:26:45;;;;;;;14.20;12.57;;;16.90;99.90;;;;;;5075012;28;20467;-61
2022/04/29 11:29:13;;;;;;;18.73;13.47;;;17.20;99.90;;;;;;5078908;28;20481;-61
2022/04/29 11:31:42;;;;;;;16.40;13.60;;;17.80;99.90;;;;;;5077885;28;20489;-61
2022/04/29 11:34:10;;;;;;;15.33;13.73;;;18.00;99.90;;;;;;5077743;28;20504;-62
2022/04/29 11:36:38;;;;;;;19.93;13.47;;;17.80;99.90;;;;;;5072633;28;20561;-62
2022/04/29 11:39:23;;;;;;;19.00;14.37;;;17.30;99.90;;;;;;5079036;28;20499;-61
2022/04/29 11:41:54;;;;;;;15.23;13.40;;;17.50;99.90;;;;;;5078611;28;20554;-61
2022/04/29 11:44:35;;;;;;;19.97;13.20;;;17.70;99.90;;;;;;5077303;28;20465;-61
2022/04/29 11:47:02;;;;;;;15.67;13.97;;;17.80;99.90;;;;;;5061579;28;20783;-62
2022/04/29 11:49:32;;;;;;;16.73;14.10;;;17.40;99.90;;;;;;5071106;28;20728;-61
2022/04/29 11:52:18;;;;;;;15.20;13.30;;;17.60;99.90;;;;;;5069811;28;20465;-61
2022/04/29 11:54:57;;;;;;;15.13;13.13;;;17.60;99.90;;;;;;5068655;28;20499;-61
2022/04/29 11:57:25;;;;;;;14.97;13.37;;;17.40;99.90;;;;;;5076440;28;20452;-61
2022/04/29 11:59:53;;;;;;;14.73;13.33;;;17.60;99.90;;;;;;5076353;28;20488;-61
2022/04/29 12:02:21;;;;;;;20.63;14.53;;;17.80;99.90;;;;;;5073933;28;20503;-60
2022/04/29 12:04:58;;;;;;;15.20;12.50;;;18.10;99.90;;;;;;5070046;28;20461;-60
2022/04/29 12:07:41;;;;;;;20.80;13.00;;;18.20;99.90;;;;;;5067920;28;20465;-61
2022/04/29 12:10:26;;;;;;;19.20;14.00;;;18.30;99.90;;;;;;5072902;28;20464;-61
2022/04/29 12:12:56;;;;;;;13.80;12.50;;;18.50;99.90;;;;;;5068379;28;20493;-61
2022/04/29 12:15:30;;;;;;;13.90;12.10;;;18.60;99.90;;;;;;5068486;28;20461;-61
2022/04/29 12:17:59;;;;;;;18.00;12.83;;;18.70;99.90;;;;;;5069824;28;20453;-60
2022/04/29 12:20:34;;;;;;;15.17;13.57;;;18.90;99.90;;;;;;5077051;28;20485;-61
2022/04/29 12:23:26;;;;;;;16.87;14.40;;;19.20;99.90;;;;;;5067773;28;20511;-62
2022/04/29 12:25:55;;;;;;;14.63;12.80;;;19.30;99.90;;;;;;5054833;28;20548;-60
2022/04/29 12:28:23;;;;;;;14.83;13.43;;;19.00;99.90;;;;;;5063995;28;20492;-59
2022/04/29 12:36:48;;;;;;;13.90;12.50;;;18.50;99.90;;;;;;5077177;28;20729;-61
2022/04/29 12:39:21;;;;;;;19.73;14.50;;;18.70;99.90;;;;;;5076112;28;20492;-61
2022/04/29 12:42:14;;;;;;;17.67;14.70;;;18.00;99.90;;;;;;5077613;28;21245;-61
2022/04/29 12:45:07;;;;;;;17.63;13.97;;;18.40;99.90;;;;;;5057699;28;20466;-61
2022/04/29 12:47:38;;;;;;;15.97;12.60;;;18.10;99.90;;;;;;5057391;28;20505;-61
2022/04/29 12:50:23;;;;;;;20.90;14.57;;;18.00;99.90;;;;;;5072494;28;20489;-61
2022/04/29 12:52:54;;;;;;;16.70;13.70;;;17.60;99.90;;;;;;5076693;28;20461;-61
2022/04/29 12:55:21;;;;;;;17.47;12.83;;;17.90;99.90;;;;;;5075561;28;20461;-61
2022/04/29 12:58:04;;;;;;;15.23;13.13;;;17.90;99.90;;;;;;5077515;28;20485;-61
2022/04/29 13:00:38;;;;;;;17.97;13.30;;;17.70;99.90;;;;;;5075891;28;20555;-61
2022/04/29 13:03:09;;;;;;;16.03;12.47;;;17.90;99.90;;;;;;5074625;28;20947;-61
2022/04/29 13:05:43;;;;;;;13.87;12.20;;;18.60;99.90;;;;;;5074524;28;20808;-61
2022/04/29 13:08:13;;;;;;;16.30;12.07;;;18.50;99.90;;;;;;5075810;28;20490;-61
2022/04/29 13:10:46;;;;;;;14.23;11.47;;;18.50;99.90;;;;;;5076724;28;20461;-61
2022/04/29 13:13:20;;;;;;;14.43;12.80;;;18.40;99.90;;;;;;5076227;28;20489;-61
2022/04/29 13:15:56;;;;;;;14.30;12.53;;;18.40;99.90;;;;;;5075125;28;20468;-61
2022/04/29 13:18:23;;;;;;;13.57;12.23;;;18.60;99.90;;;;;;5074559;28;20500;-61
2022/04/29 13:20:52;;;;;;;17.00;12.33;;;18.10;99.90;;;;;;5074952;28;20461;-61
2022/04/29 13:23:27;;;;;;;15.10;13.03;;;17.70;99.90;;;;;;5076758;28;20479;-61
2022/04/29 13:26:02;;;;;;;14.73;13.20;;;17.40;99.90;;;;;;5075134;28;20477;-61
2022/04/29 13:28:31;;;;;;;13.80;12.50;;;16.90;99.90;;;;;;5076286;28;20488;-61
2022/04/29 13:31:01;;;;;;;13.63;12.33;;;17.00;99.90;;;;;;5075565;28;20906;-61
2022/04/29 13:33:33;;;;;;;14.10;12.17;;;17.50;99.90;;;;;;5076221;28;20464;-61
2022/04/29 13:36:06;;;;;;;13.93;12.50;;;17.00;99.90;;;;;;5074097;28;20465;-60
2022/04/29 13:38:35;;;;;;;15.93;13.53;;;16.60;99.90;;;;;;5074817;28;20461;-61
2022/04/29 13:41:03;;;;;;;14.00;12.50;;;16.40;99.90;;;;;;5074615;28;20464;-61
2022/04/29 13:43:36;;;;;;;18.70;13.50;;;16.40;99.90;;;;;;5076128;28;20472;-61
2022/04/29 13:46:05;;;;;;;14.43;13.00;;;16.20;99.90;;;;;;5075664;28;20812;-60
2022/04/29 13:48:32;;;;;;;17.47;12.33;;;16.30;99.90;;;;;;5074243;28;20544;-60